Time;durP1;ratioP1;P1;durP2;ratioP2;P2;SDS_P1;SDS_P2;PMS_P1;PMS_P2;Temp;Humidity;BMP_temperature;BMP_pressure;BME280_temperature;BME280_humidity;BME280_pressure;Samples;Min_cycle;Max_cycle;Signal;HPM_P1;HPM_P2
2023/09/03 00:00:52;;;;;;;30.45;27.60;;;;;;;16.08;100.00;102397.53;5093487;28;20494;-61
2023/09/03 00:03:17;;;;;;;28.02;25.50;;;;;;;16.16;100.00;102398.88;5094873;28;20035;-61
2023/09/03 00:05:50;;;;;;;26.42;23.77;;;;;;;16.00;100.00;102399.84;5091028;28;20020;-61
2023/09/03 00:08:18;;;;;;;22.75;20.70;;;;;;;16.05;100.00;102388.81;5080792;28;20044;-61
2023/09/03 00:10:48;;;;;;;24.17;21.85;;;;;;;16.03;100.00;102396.97;5072975;28;20386;-61
2023/09/03 00:13:13;;;;;;;25.35;23.15;;;;;;;15.96;100.00;102398.28;5079624;28;20386;-61
2023/09/03 00:15:39;;;;;;;24.08;21.60;;;;;;;16.00;100.00;102396.25;5083538;28;20099;-61
2023/09/03 00:18:06;;;;;;;24.40;22.05;;;;;;;15.86;100.00;102392.63;5106875;28;20058;-61
2023/09/03 00:20:31;;;;;;;23.38;21.33;;;;;;;15.89;100.00;102399.63;5086085;28;20115;-61
2023/09/03 00:22:57;;;;;;;23.25;21.02;;;;;;;15.90;100.00;102393.28;5094526;28;20088;-61
2023/09/03 00:25:24;;;;;;;26.08;23.52;;;;;;;15.78;100.00;102381.47;5094436;28;20555;-61
2023/09/03 00:27:50;;;;;;;23.25;21.05;;;;;;;15.87;100.00;102388.97;5108809;28;20487;-60
2023/09/03 00:30:16;;;;;;;22.80;20.85;;;;;;;15.76;100.00;102390.56;5114828;27;20019;-61
2023/09/03 00:32:41;;;;;;;24.08;21.70;;;;;;;15.77;100.00;102387.81;5114575;28;20031;-61
2023/09/03 00:35:07;;;;;;;24.02;21.45;;;;;;;15.88;100.00;102404.13;5095719;28;20027;-60
2023/09/03 00:37:32;;;;;;;24.30;21.73;;;;;;;15.77;100.00;102403.03;5114758;28;20035;-60
2023/09/03 00:39:58;;;;;;;22.70;20.48;;;;;;;15.77;100.00;102411.09;5114440;28;20479;-61
2023/09/03 00:42:23;;;;;;;22.25;19.95;;;;;;;15.78;100.00;102410.13;5114594;28;20471;-60
2023/09/03 00:44:49;;;;;;;24.00;21.80;;;;;;;15.67;100.00;102400.00;5114338;28;20048;-61
2023/09/03 00:47:18;;;;;;;21.98;20.05;;;;;;;15.81;100.00;102418.84;5096706;28;20493;-60
2023/09/03 00:49:44;;;;;;;23.67;21.45;;;;;;;15.67;100.00;102413.41;5095389;28;20693;-61
2023/09/03 00:52:11;;;;;;;22.17;20.00;;;;;;;15.65;100.00;102418.03;5114482;28;20028;-60
2023/09/03 00:54:37;;;;;;;21.88;19.88;;;;;;;15.71;100.00;102411.47;5095635;28;20016;-61
2023/09/03 00:57:03;;;;;;;22.77;20.70;;;;;;;15.59;100.00;102413.03;5112288;28;20043;-61
2023/09/03 00:59:30;;;;;;;22.10;19.88;;;;;;;15.66;100.00;102423.28;5114117;28;20038;-61
2023/09/03 01:01:56;;;;;;;21.98;19.88;;;;;;;15.62;100.00;102416.38;5113590;28;20490;-61
2023/09/03 01:04:22;;;;;;;22.08;20.20;;;;;;;15.61;100.00;102414.63;5119009;27;20104;-61
2023/09/03 01:06:49;;;;;;;22.33;20.23;;;;;;;15.61;100.00;102416.47;5134586;27;20051;-61
2023/09/03 01:09:15;;;;;;;20.80;19.00;;;;;;;15.52;100.00;102420.53;5116020;27;20521;-60
2023/09/03 01:12:12;;;;;;;23.17;20.95;;;;;;;15.67;100.00;102438.44;5121740;27;20521;-61
2023/09/03 01:15:01;;;;;;;21.88;19.90;;;;;;;15.56;100.00;102443.56;5112560;28;20025;-61
2023/09/03 01:17:47;;;;;;;22.20;20.20;;;;;;;15.53;100.00;102441.06;5095351;28;20024;-61
2023/09/03 01:20:18;;;;;;;22.17;19.80;;;;;;;15.54;100.00;102425.84;5113252;28;20764;-61
2023/09/03 01:23:21;;;;;;;21.83;19.98;;;;;;;15.38;100.00;102409.75;5130150;27;20377;-61
2023/09/03 01:26:31;;;;;;;21.38;19.27;;;;;;;15.50;100.00;102429.63;5133970;27;20027;-61
2023/09/03 01:28:58;;;;;;;22.35;20.23;;;;;;;15.42;100.00;102428.28;5133863;27;20401;-61
2023/09/03 01:31:24;;;;;;;21.15;19.08;;;;;;;15.50;100.00;102430.53;5106644;28;20393;-61
2023/09/03 01:33:50;;;;;;;20.70;18.63;;;;;;;15.45;100.00;102427.25;5113686;28;20023;-61
2023/09/03 01:36:18;;;;;;;19.75;17.92;;;;;;;15.36;100.00;102417.06;5113158;28;20023;-61
2023/09/03 01:38:43;;;;;;;21.17;19.13;;;;;;;15.46;100.00;102426.28;5114047;28;20026;-61
2023/09/03 01:41:09;;;;;;;19.98;18.15;;;;;;;15.33;100.00;102425.28;5113341;28;20027;-61
2023/09/03 01:43:35;;;;;;;20.88;18.85;;;;;;;15.26;100.00;102430.09;5110034;28;20023;-61
2023/09/03 01:46:09;;;;;;;20.70;18.88;;;;;;;15.31;100.00;102424.50;5110427;28;20382;-61
2023/09/03 01:48:59;;;;;;;21.98;19.83;;;;;;;15.34;100.00;102427.84;5092992;28;20078;-61
2023/09/03 01:51:39;;;;;;;23.50;21.10;;;;;;;15.31;100.00;102430.72;5102626;28;20016;-61
2023/09/03 01:54:19;;;;;;;20.45;18.58;;;;;;;15.16;100.00;102428.91;5113206;28;20042;-61
2023/09/03 01:56:54;;;;;;;20.92;18.73;;;;;;;15.15;100.00;102425.38;5111057;28;20039;-61
2023/09/03 01:59:23;;;;;;;20.98;18.92;;;;;;;15.16;100.00;102427.09;5112983;28;20020;-61
2023/09/03 02:01:51;;;;;;;20.13;18.10;;;;;;;15.25;100.00;102430.19;5112713;28;20035;-61
2023/09/03 02:04:19;;;;;;;19.95;17.98;;;;;;;15.19;100.00;102432.28;5092096;28;20019;-61
2023/09/03 02:06:48;;;;;;;19.30;17.67;;;;;;;15.20;100.00;102431.31;5109795;28;20167;-61
2023/09/03 02:09:13;;;;;;;20.63;18.80;;;;;;;15.25;100.00;102427.53;5112857;28;20412;-61
2023/09/03 02:11:39;;;;;;;21.08;18.55;;;;;;;15.18;100.00;102427.03;5112589;28;20072;-61
2023/09/03 02:14:07;;;;;;;20.60;18.38;;;;;;;15.16;100.00;102432.44;5127622;27;20027;-61
2023/09/03 02:16:32;;;;;;;20.73;18.35;;;;;;;15.07;100.00;102443.69;5110283;28;20027;-61
2023/09/03 02:19:00;;;;;;;19.98;18.20;;;;;;;15.10;100.00;102454.25;5094496;28;20099;-61
2023/09/03 02:21:28;;;;;;;19.77;17.98;;;;;;;15.04;100.00;102459.09;5109942;28;20347;-61
2023/09/03 02:23:53;;;;;;;20.35;18.45;;;;;;;15.09;100.00;102455.22;5094216;28;20381;-61
2023/09/03 02:26:18;;;;;;;21.02;19.13;;;;;;;14.93;100.00;102460.53;5112282;28;20102;-60
2023/09/03 02:28:44;;;;;;;21.27;19.15;;;;;;;14.93;100.00;102468.56;5112810;28;20505;-61
2023/09/03 02:31:12;;;;;;;20.40;18.58;;;;;;;15.02;100.00;102466.34;5132260;27;20023;-61
2023/09/03 02:33:37;;;;;;;20.40;18.70;;;;;;;14.86;100.00;102466.34;5133064;27;20034;-61
2023/09/03 02:36:03;;;;;;;19.98;18.17;;;;;;;15.01;100.00;102473.53;5132548;27;20378;-61
2023/09/03 02:38:31;;;;;;;19.75;17.83;;;;;;;14.95;100.00;102474.72;5131243;27;20057;-61
2023/09/03 02:40:56;;;;;;;20.52;18.73;;;;;;;14.94;100.00;102470.31;5112256;28;20057;-61
2023/09/03 02:43:22;;;;;;;19.77;18.05;;;;;;;14.93;100.00;102465.91;5112294;28;20035;-61
2023/09/03 02:45:47;;;;;;;19.63;17.90;;;;;;;14.91;100.00;102470.50;5112618;28;20479;-61
2023/09/03 02:48:13;;;;;;;19.92;18.20;;;;;;;14.86;100.00;102467.19;5094069;28;20027;-61
2023/09/03 02:50:38;;;;;;;20.58;18.52;;;;;;;14.89;100.00;102456.31;5111765;28;20031;-61
2023/09/03 02:53:05;;;;;;;19.77;18.17;;;;;;;14.87;100.00;102446.63;5112351;28;20020;-61
2023/09/03 02:55:30;;;;;;;21.27;19.10;;;;;;;14.86;100.00;102445.78;5094089;28;20028;-61
2023/09/03 02:57:56;;;;;;;19.80;18.00;;;;;;;14.86;100.00;102448.44;5093407;28;20034;-61
2023/09/03 03:00:24;;;;;;;19.88;18.02;;;;;;;14.67;100.00;102437.00;5112275;28;20024;-61
2023/09/03 03:02:52;;;;;;;20.27;18.30;;;;;;;14.82;100.00;102460.25;5112524;28;20095;-61
2023/09/03 03:05:17;;;;;;;19.60;17.65;;;;;;;14.73;100.00;102440.19;5132133;28;20274;-61
2023/09/03 03:07:45;;;;;;;18.98;17.27;;;;;;;14.82;100.00;102459.41;5132868;28;20030;-61
2023/09/03 03:10:11;;;;;;;19.83;18.02;;;;;;;14.80;100.00;102461.31;5114059;28;20027;-61
2023/09/03 03:12:37;;;;;;;18.67;17.13;;;;;;;14.79;100.00;102464.94;5132328;28;20027;-61
2023/09/03 03:15:03;;;;;;;19.65;17.63;;;;;;;14.68;100.00;102461.03;5117208;28;20055;-60
2023/09/03 03:17:29;;;;;;;19.83;17.92;;;;;;;14.72;100.00;102472.44;5112019;28;20032;-61
2023/09/03 03:19:54;;;;;;;19.85;18.08;;;;;;;14.77;100.00;102478.44;5115104;27;20073;-60
2023/09/03 03:22:20;;;;;;;19.00;17.33;;;;;;;14.74;100.00;102470.56;5115982;28;20023;-61
2023/09/03 03:24:45;;;;;;;21.23;18.40;;;;;;;14.66;100.00;102451.34;5097655;28;20020;-61
2023/09/03 03:27:10;;;;;;;21.80;18.67;;;;;;;14.70;100.00;102432.34;5115690;28;20048;-61
2023/09/03 03:29:36;;;;;;;20.75;18.65;;;;;;;14.65;100.00;102426.41;5115849;28;20023;-61
2023/09/03 03:32:01;;;;;;;20.75;18.90;;;;;;;14.61;100.00;102418.59;5115804;28;20020;-61
2023/09/03 03:34:27;;;;;;;19.88;17.92;;;;;;;14.67;100.00;102420.94;5115341;28;20045;-61
2023/09/03 03:36:53;;;;;;;20.58;18.80;;;;;;;14.67;100.00;102429.81;5116689;27;20038;-61
2023/09/03 03:39:21;;;;;;;20.15;18.33;;;;;;;14.60;100.00;102428.44;5136521;27;20106;-60
2023/09/03 03:41:49;;;;;;;20.35;18.38;;;;;;;14.58;100.00;102421.44;5136044;27;20485;-61
2023/09/03 03:44:14;;;;;;;20.65;18.85;;;;;;;14.63;100.00;102439.00;5136127;27;20019;-61
2023/09/03 03:46:42;;;;;;;20.20;18.30;;;;;;;14.52;100.00;102457.44;5133154;27;20022;-60
2023/09/03 03:49:08;;;;;;;19.98;18.00;;;;;;;14.59;100.00;102458.88;5115304;28;20484;-60
2023/09/03 03:51:34;;;;;;;21.33;19.23;;;;;;;14.54;100.00;102455.56;5115129;28;20052;-61
2023/09/03 03:54:03;;;;;;;20.90;19.10;;;;;;;14.58;100.00;102469.66;5117615;27;20031;-60
2023/09/03 03:56:28;;;;;;;19.90;18.40;;;;;;;14.51;100.00;102461.94;5117590;27;20015;-61
2023/09/03 03:58:54;;;;;;;21.65;19.65;;;;;;;14.47;100.00;102460.34;5135947;27;20030;-61
2023/09/03 04:01:24;;;;;;;19.98;18.13;;;;;;;14.55;100.00;102462.63;5135904;27;20029;-61
2023/09/03 04:03:51;;;;;;;20.42;18.63;;;;;;;14.44;100.00;102447.13;5104139;28;20110;-61
2023/09/03 04:06:17;;;;;;;20.90;18.95;;;;;;;14.45;100.00;102461.38;5114702;28;20428;-60
2023/09/03 04:08:43;;;;;;;20.60;18.77;;;;;;;14.46;100.00;102463.97;5115425;28;20028;-61
2023/09/03 04:11:10;;;;;;;19.65;18.05;;;;;;;14.47;100.00;102470.19;5115413;27;20471;-61
2023/09/03 04:13:37;;;;;;;21.35;19.45;;;;;;;14.31;100.00;102476.34;5096661;28;20051;-61
2023/09/03 04:16:08;;;;;;;20.25;18.35;;;;;;;14.19;100.00;102477.00;5115197;28;20399;-61
2023/09/03 04:18:34;;;;;;;20.02;18.23;;;;;;;14.31;100.00;102476.34;5113336;28;20371;-61
2023/09/03 04:21:00;;;;;;;20.60;18.80;;;;;;;14.32;100.00;102482.56;5096156;28;20034;-61
2023/09/03 04:23:26;;;;;;;20.10;18.20;;;;;;;14.23;100.00;102485.72;5115096;28;20418;-61
2023/09/03 04:25:52;;;;;;;21.10;19.20;;;;;;;14.29;100.00;102488.97;5114447;28;20374;-61
2023/09/03 04:28:20;;;;;;;20.73;18.92;;;;;;;14.25;100.00;102475.81;5083323;28;20049;-61
2023/09/03 04:30:46;;;;;;;20.88;18.98;;;;;;;14.25;100.00;102478.50;5052265;28;20094;-61
2023/09/03 04:33:14;;;;;;;21.98;19.92;;;;;;;14.37;100.00;102483.19;5067124;28;20036;-61
2023/09/03 04:35:40;;;;;;;20.63;18.65;;;;;;;14.39;100.00;102483.13;5073676;28;20016;-61
2023/09/03 04:38:05;;;;;;;20.80;18.85;;;;;;;14.39;100.00;102486.66;5086463;28;20093;-61
2023/09/03 04:40:35;;;;;;;22.20;20.25;;;;;;;14.16;100.00;102489.69;5092658;28;20031;-61
2023/09/03 04:43:01;;;;;;;21.33;19.30;;;;;;;14.23;100.00;102501.78;5093129;28;20497;-61
2023/09/03 04:45:26;;;;;;;20.08;18.40;;;;;;;14.23;100.00;102499.97;5081922;28;20468;-61
2023/09/03 04:47:52;;;;;;;21.33;19.58;;;;;;;14.25;100.00;102499.91;5061761;28;20086;-61
2023/09/03 04:50:17;;;;;;;21.83;19.83;;;;;;;14.23;100.00;102494.63;5059579;28;20048;-61
2023/09/03 04:52:44;;;;;;;21.52;19.55;;;;;;;14.31;100.00;102503.13;5094020;28;20050;-61
2023/09/03 04:55:10;;;;;;;22.15;20.25;;;;;;;14.30;100.00;102513.91;5060921;28;20055;-61
2023/09/03 04:57:36;;;;;;;21.55;19.45;;;;;;;14.27;100.00;102512.25;5071792;28;20058;-61
2023/09/03 05:00:03;;;;;;;21.35;19.30;;;;;;;14.25;100.00;102508.78;5094129;28;20479;-61
2023/09/03 05:02:29;;;;;;;21.58;19.50;;;;;;;14.32;100.00;102506.66;5072062;28;20107;-61
2023/09/03 05:04:54;;;;;;;22.23;20.33;;;;;;;14.30;100.00;102521.94;5055811;28;20111;-61
2023/09/03 05:07:20;;;;;;;22.13;20.23;;;;;;;14.29;100.00;102528.22;5060497;28;20430;-61
2023/09/03 05:09:45;;;;;;;23.65;21.40;;;;;;;14.31;100.00;102526.34;5092075;28;20036;-61
2023/09/03 05:12:10;;;;;;;21.65;19.70;;;;;;;14.27;100.00;102525.66;5082240;28;20023;-61
2023/09/03 05:14:38;;;;;;;22.45;20.45;;;;;;;14.22;100.00;102529.50;5069365;28;20387;-61
2023/09/03 05:17:04;;;;;;;21.42;19.65;;;;;;;14.22;100.00;102527.69;5062091;28;20531;-61
2023/09/03 05:19:29;;;;;;;23.33;21.33;;;;;;;14.28;100.00;102522.00;5065336;28;20025;-61
2023/09/03 05:21:57;;;;;;;22.10;20.05;;;;;;;14.27;100.00;102522.97;5072863;28;20016;-61
2023/09/03 05:24:22;;;;;;;22.20;19.92;;;;;;;14.30;100.00;102519.28;5092731;28;20035;-61
2023/09/03 05:26:48;;;;;;;21.90;19.88;;;;;;;14.22;100.00;102522.34;5093861;28;20039;-60
2023/09/03 05:29:13;;;;;;;23.23;20.85;;;;;;;14.34;100.00;102539.56;5111404;28;20027;-61
2023/09/03 05:31:39;;;;;;;23.10;20.92;;;;;;;14.42;100.00;102540.03;5095008;28;20034;-61
2023/09/03 05:34:04;;;;;;;21.88;20.10;;;;;;;14.38;100.00;102551.84;5112934;28;20478;-61
2023/09/03 05:36:30;;;;;;;22.27;20.25;;;;;;;14.36;100.00;102531.47;5113745;27;20024;-61
2023/09/03 05:38:55;;;;;;;23.15;20.98;;;;;;;14.36;100.00;102537.69;5094820;28;20068;-61
2023/09/03 05:41:21;;;;;;;23.10;20.98;;;;;;;14.35;100.00;102535.06;5112281;28;20062;-61
2023/09/03 05:43:46;;;;;;;23.58;21.20;;;;;;;14.48;100.00;102544.22;5113281;28;20032;-61
2023/09/03 05:46:12;;;;;;;23.77;21.42;;;;;;;14.43;100.00;102547.13;5108315;28;20424;-61
2023/09/03 05:48:37;;;;;;;23.45;21.23;;;;;;;14.44;100.00;102532.81;5113064;28;20028;-61
2023/09/03 05:51:06;;;;;;;25.58;23.23;;;;;;;14.48;100.00;102538.88;5110164;28;20035;-61
2023/09/03 05:53:35;;;;;;;24.50;22.40;;;;;;;14.47;100.00;102534.44;5119637;27;20416;-61
2023/09/03 05:56:07;;;;;;;24.23;21.80;;;;;;;14.57;100.00;102545.59;5133982;27;20035;-61
2023/09/03 05:58:33;;;;;;;24.30;22.20;;;;;;;14.60;100.00;102548.09;5119083;27;20080;-61
2023/09/03 06:01:02;;;;;;;26.73;24.15;;;;;;;14.62;100.00;102554.22;5113160;28;20036;-61
2023/09/03 06:03:30;;;;;;;28.80;26.17;;;;;;;14.61;100.00;102553.34;5113115;28;20019;-61
2023/09/03 06:05:55;;;;;;;29.85;26.85;;;;;;;14.72;100.00;102563.50;5111845;28;20076;-61
2023/09/03 06:08:20;;;;;;;30.20;27.60;;;;;;;14.76;100.00;102573.09;5112657;28;20023;-61
2023/09/03 06:10:46;;;;;;;30.25;27.40;;;;;;;14.77;100.00;102581.06;5095050;28;20019;-61
2023/09/03 06:13:11;;;;;;;30.02;27.27;;;;;;;14.76;100.00;102578.47;5094477;28;20020;-61
2023/09/03 06:15:37;;;;;;;31.88;28.90;;;;;;;14.72;100.00;102572.41;5112312;28;20019;-61
2023/09/03 06:18:02;;;;;;;30.27;27.73;;;;;;;14.84;100.00;102578.06;5112866;28;20130;-61
2023/09/03 06:20:28;;;;;;;32.65;29.67;;;;;;;14.78;100.00;102579.25;5112354;28;20098;-61
2023/09/03 06:22:53;;;;;;;32.25;29.23;;;;;;;14.87;100.00;102570.72;5094241;28;20028;-61
2023/09/03 06:25:19;;;;;;;32.90;29.73;;;;;;;14.88;100.00;102584.97;5105769;28;20028;-61
2023/09/03 06:27:44;;;;;;;34.00;30.70;;;;;;;14.83;100.00;102587.91;5084953;28;20056;-61
2023/09/03 06:30:10;;;;;;;31.23;28.38;;;;;;;14.95;100.00;102603.34;5100550;28;20032;-61
2023/09/03 06:32:36;;;;;;;31.40;28.83;;;;;;;15.01;100.00;102607.50;5112524;28;20031;-61
2023/09/03 06:35:05;;;;;;;32.80;29.95;;;;;;;14.96;100.00;102612.22;5111832;28;20425;-61
2023/09/03 06:37:31;;;;;;;34.97;31.77;;;;;;;15.06;100.00;102620.63;5095306;27;20127;-61
2023/09/03 06:39:57;;;;;;;33.78;30.88;;;;;;;15.05;100.00;102617.09;5088513;28;20464;-61
2023/09/03 06:42:22;;;;;;;33.65;30.67;;;;;;;15.11;100.00;102621.25;5091933;28;20024;-61
2023/09/03 06:44:48;;;;;;;34.03;30.90;;;;;;;15.10;100.00;102631.13;5081476;28;20157;-61
2023/09/03 06:47:15;;;;;;;34.65;31.33;;;;;;;15.14;100.00;102631.81;5106111;28;20110;-61
2023/09/03 06:49:41;;;;;;;34.60;31.50;;;;;;;15.20;100.00;102632.34;5111414;28;20458;-61
2023/09/03 06:52:09;;;;;;;35.05;31.77;;;;;;;15.24;100.00;102642.94;5111494;28;20051;-61
2023/09/03 06:54:34;;;;;;;34.63;31.55;;;;;;;15.19;100.00;102636.00;5111169;28;20392;-60
2023/09/03 06:57:00;;;;;;;33.55;30.05;;;;;;;15.32;100.00;102632.63;5091879;28;20114;-60
2023/09/03 06:59:27;;;;;;;33.88;31.08;;;;;;;15.41;100.00;102640.19;5126042;28;20080;-60
2023/09/03 07:01:53;;;;;;;35.45;31.98;;;;;;;15.42;100.00;102648.16;5112208;28;20546;-60
2023/09/03 07:04:21;;;;;;;34.63;31.33;;;;;;;15.46;100.00;102646.16;5111929;28;20023;-61
2023/09/03 07:06:46;;;;;;;33.50;30.52;;;;;;;15.49;100.00;102639.75;5111668;28;20027;-61
2023/09/03 07:09:12;;;;;;;34.80;31.70;;;;;;;15.57;100.00;102640.22;5093792;28;20116;-61
2023/09/03 07:11:37;;;;;;;35.28;32.05;;;;;;;15.64;100.00;102650.50;5092771;28;20038;-61
2023/09/03 07:14:03;;;;;;;33.95;30.85;;;;;;;15.78;100.00;102651.59;5110476;28;20027;-61
2023/09/03 07:16:29;;;;;;;33.78;30.67;;;;;;;15.92;100.00;102653.50;5110744;28;20019;-61
2023/09/03 07:18:55;;;;;;;34.45;31.25;;;;;;;15.90;100.00;102650.91;5093821;28;20043;-61
2023/09/03 07:21:20;;;;;;;32.80;29.70;;;;;;;16.05;100.00;102663.44;5091660;28;20023;-61
2023/09/03 07:23:45;;;;;;;33.25;30.27;;;;;;;16.06;100.00;102661.59;5106755;28;20024;-61
2023/09/03 07:26:11;;;;;;;33.38;30.27;;;;;;;16.20;100.00;102661.69;5098969;28;20016;-61
2023/09/03 07:28:38;;;;;;;32.00;29.00;;;;;;;16.20;100.00;102672.44;5092140;28;20036;-61
2023/09/03 07:31:04;;;;;;;32.55;29.63;;;;;;;16.33;100.00;102664.56;5111635;28;20047;-61
2023/09/03 07:33:30;;;;;;;32.42;29.52;;;;;;;16.46;100.00;102662.00;5111571;28;20470;-60
2023/09/03 07:35:58;;;;;;;32.58;29.67;;;;;;;16.42;100.00;102666.69;5092054;28;20019;-61
2023/09/03 07:38:27;;;;;;;30.83;28.10;;;;;;;16.53;100.00;102663.34;5111818;28;20027;-60
2023/09/03 07:40:52;;;;;;;31.27;28.40;;;;;;;16.57;100.00;102673.84;5109277;28;20036;-61
2023/09/03 07:43:18;;;;;;;32.90;29.65;;;;;;;16.44;100.00;102669.28;5106918;28;20019;-61
2023/09/03 07:45:44;;;;;;;33.10;29.90;;;;;;;16.51;100.00;102682.25;5085258;28;20020;-61
2023/09/03 07:48:10;;;;;;;33.45;30.25;;;;;;;16.59;100.00;102679.13;5107880;28;20016;-61
2023/09/03 07:50:38;;;;;;;33.08;30.13;;;;;;;16.70;100.00;102691.91;5103306;28;20024;-61
2023/09/03 07:53:04;;;;;;;34.35;31.23;;;;;;;16.78;100.00;102692.38;5103376;28;20429;-61
2023/09/03 07:55:30;;;;;;;32.22;29.38;;;;;;;16.86;100.00;102691.91;5110949;28;20081;-61
2023/09/03 07:57:56;;;;;;;33.35;30.42;;;;;;;16.99;100.00;102693.75;5111440;28;20026;-61
2023/09/03 08:00:21;;;;;;;33.45;30.45;;;;;;;17.12;100.00;102688.50;5111151;28;20106;-61
2023/09/03 08:02:47;;;;;;;32.65;29.77;;;;;;;17.26;100.00;102682.25;5111136;28;20096;-61
2023/09/03 08:05:12;;;;;;;32.85;29.85;;;;;;;17.33;100.00;102677.38;5093836;28;20131;-61
2023/09/03 08:07:38;;;;;;;32.97;30.08;;;;;;;17.35;100.00;102680.81;5115282;28;20030;-61
2023/09/03 08:10:04;;;;;;;30.23;27.65;;;;;;;17.43;100.00;102679.38;5102112;27;20020;-61
2023/09/03 08:12:29;;;;;;;30.70;27.80;;;;;;;17.52;100.00;102682.47;5114085;27;20112;-61
2023/09/03 08:14:55;;;;;;;30.92;28.00;;;;;;;17.68;100.00;102681.41;5093728;28;20076;-61
2023/09/03 08:17:21;;;;;;;28.83;26.02;;;;;;;17.81;98.49;102680.63;5110057;28;20032;-61
2023/09/03 08:19:47;;;;;;;29.88;27.17;;;;;;;17.91;98.88;102674.56;5110872;28;20034;-61
2023/09/03 08:22:12;;;;;;;29.17;26.27;;;;;;;18.04;96.67;102685.41;5105229;28;20023;-61
2023/09/03 08:24:37;;;;;;;28.80;26.20;;;;;;;18.14;95.58;102680.25;5079272;28;20028;-61
2023/09/03 08:27:03;;;;;;;27.65;25.05;;;;;;;18.29;95.55;102670.28;5115106;28;20016;-60
2023/09/03 08:29:29;;;;;;;26.17;23.85;;;;;;;18.44;94.41;102668.41;5114845;28;20028;-61
2023/09/03 08:31:56;;;;;;;26.77;24.40;;;;;;;18.57;93.59;102670.19;5114558;28;20023;-61
2023/09/03 08:34:22;;;;;;;25.63;23.35;;;;;;;18.77;92.85;102673.38;5114603;28;20450;-61
2023/09/03 08:36:47;;;;;;;25.30;22.90;;;;;;;18.98;92.81;102677.28;5095597;28;20059;-61
2023/09/03 08:39:13;;;;;;;24.27;22.20;;;;;;;19.03;94.96;102682.34;5096235;28;20024;-61
2023/09/03 08:41:42;;;;;;;22.35;20.15;;;;;;;19.16;89.45;102683.22;5096144;28;20023;-61
2023/09/03 08:44:16;;;;;;;;;;;;;;;19.32;90.97;102682.13;5097303;28;20106;-61
2023/09/03 08:46:46;;;;;;;21.80;19.80;;;;;;;19.25;89.99;102690.66;5113991;28;19916;-61
2023/09/03 08:49:13;;;;;;;23.63;21.23;;;;;;;19.34;91.88;102682.91;5114302;28;20031;-61
2023/09/03 08:51:39;;;;;;;20.60;18.52;;;;;;;19.66;89.10;102686.88;5095559;28;20020;-61
2023/09/03 08:54:07;;;;;;;20.67;18.83;;;;;;;19.66;84.90;102683.34;5114349;28;20031;-61
2023/09/03 08:56:33;;;;;;;21.83;19.58;;;;;;;19.80;91.09;102682.34;5113659;28;20032;-61
2023/09/03 08:58:59;;;;;;;20.33;18.30;;;;;;;20.01;86.96;102688.84;5114146;28;20027;-61
2023/09/03 09:01:25;;;;;;;20.67;18.67;;;;;;;20.02;88.26;102692.41;5127573;27;20117;-61
2023/09/03 09:03:54;;;;;;;18.48;16.67;;;;;;;20.29;84.93;102697.59;5116269;27;20015;-61
2023/09/03 09:06:20;;;;;;;17.80;16.10;;;;;;;20.47;81.85;102700.75;5134023;27;20062;-61
2023/09/03 09:08:46;;;;;;;17.73;16.05;;;;;;;20.46;85.13;102697.19;5134792;27;20027;-61
2023/09/03 09:11:16;;;;;;;15.55;14.05;;;;;;;20.63;81.82;102701.34;5134443;27;20031;-61
2023/09/03 09:13:50;;;;;;;16.10;13.30;;;;;;;20.86;82.06;102700.47;5114448;27;20023;-61
2023/09/03 09:16:16;;;;;;;14.98;12.73;;;;;;;20.85;82.49;102697.84;5113248;27;20072;-61
2023/09/03 09:18:41;;;;;;;15.95;14.30;;;;;;;20.82;78.21;102695.38;5114063;27;20498;-61
2023/09/03 09:21:09;;;;;;;15.75;12.48;;;;;;;21.12;78.36;102699.38;5094460;28;20020;-61
2023/09/03 09:23:35;;;;;;;17.48;15.77;;;;;;;21.07;76.88;102695.22;5095279;28;20037;-61
2023/09/03 09:26:00;;;;;;;17.17;15.38;;;;;;;21.23;77.52;102691.28;5095191;28;20031;-61
2023/09/03 09:28:27;;;;;;;15.90;14.25;;;;;;;21.20;77.58;102697.81;5113601;28;20093;-61
2023/09/03 09:30:52;;;;;;;14.93;13.55;;;;;;;21.30;79.62;102696.13;5094871;28;20035;-61
2023/09/03 09:33:18;;;;;;;11.93;10.73;;;;;;;21.44;76.47;102691.47;5096499;28;20118;-61
2023/09/03 09:35:43;;;;;;;11.65;9.77;;;;;;;21.60;73.20;102691.13;5129336;27;20011;-61
2023/09/03 09:38:10;;;;;;;15.05;10.07;;;;;;;21.70;72.22;102692.06;5122037;27;20106;-61
2023/09/03 09:40:36;;;;;;;13.82;10.23;;;;;;;21.69;72.86;102691.22;5113369;28;20032;-61
2023/09/03 09:43:06;;;;;;;12.85;11.55;;;;;;;21.76;72.97;102688.88;5113544;28;20024;-61
2023/09/03 09:45:33;;;;;;;12.27;11.07;;;;;;;21.81;71.87;102692.06;5113060;28;20020;-61
2023/09/03 09:48:08;;;;;;;11.57;9.93;;;;;;;21.80;74.46;102673.25;5091100;28;20058;-61
2023/09/03 09:50:36;;;;;;;12.00;10.45;;;;;;;21.88;72.73;102687.84;5088123;28;20036;-61
2023/09/03 09:53:05;;;;;;;11.65;10.55;;;;;;;22.01;70.92;102682.31;5095480;28;20077;-61
2023/09/03 09:55:32;;;;;;;11.65;10.55;;;;;;;22.03;71.76;102676.75;5092502;28;20028;-61
2023/09/03 09:57:59;;;;;;;10.38;9.38;;;;;;;21.95;71.81;102671.97;5086525;28;20019;-61
2023/09/03 10:00:32;;;;;;;11.02;9.98;;;;;;;21.96;70.07;102665.56;5093826;28;20027;-61
2023/09/03 10:02:58;;;;;;;10.15;9.15;;;;;;;22.03;71.26;102668.63;5078067;28;20512;-61
2023/09/03 10:05:23;;;;;;;13.07;9.60;;;;;;;21.96;73.61;102666.41;5112078;28;20016;-61
2023/09/03 10:07:52;;;;;;;10.52;9.30;;;;;;;22.13;75.79;102675.00;5112982;28;20102;-62
2023/09/03 10:10:18;;;;;;;9.77;8.73;;;;;;;22.32;71.38;102675.22;5133183;27;20470;-61
2023/09/03 10:12:44;;;;;;;13.07;9.88;;;;;;;22.17;73.98;102671.94;5133523;27;20027;-61
2023/09/03 10:15:15;;;;;;;10.90;9.20;;;;;;;22.33;72.85;102681.53;5100548;28;20020;-61
2023/09/03 10:17:44;;;;;;;16.63;9.85;;;;;;;22.37;73.51;102674.84;5094410;28;20046;-61
2023/09/03 10:20:15;;;;;;;9.82;8.48;;;;;;;22.50;71.81;102667.41;5111889;28;20011;-62
2023/09/03 10:22:41;;;;;;;11.07;8.32;;;;;;;22.45;71.97;102670.47;5112643;28;20417;-62
2023/09/03 10:25:10;;;;;;;10.93;8.85;;;;;;;22.77;68.42;102671.44;5115098;27;20076;-61
2023/09/03 10:27:39;;;;;;;9.48;8.55;;;;;;;22.81;68.83;102667.47;5103719;28;20052;-61
2023/09/03 10:30:09;;;;;;;10.15;9.15;;;;;;;23.05;66.31;102678.06;5090942;28;20020;-61
2023/09/03 10:32:36;;;;;;;9.27;8.30;;;;;;;23.16;65.49;102677.16;5071185;28;20032;-62
2023/09/03 10:35:09;;;;;;;8.30;7.43;;;;;;;23.05;65.95;102678.06;5071460;28;20071;-61
2023/09/03 10:37:39;;;;;;;9.02;7.30;;;;;;;23.19;65.55;102685.88;5071733;28;20027;-61
2023/09/03 10:40:20;;;;;;;8.07;7.28;;;;;;;23.48;65.88;102675.16;5051721;28;20033;-61
2023/09/03 10:42:46;;;;;;;10.35;8.00;;;;;;;23.64;66.04;102676.50;5064377;28;20438;-61
2023/09/03 10:45:12;;;;;;;9.40;7.07;;;;;;;23.53;61.74;102672.91;5071307;28;20028;-61
2023/09/03 10:47:56;;;;;;;7.68;6.25;;;;;;;23.78;62.42;102682.44;5071746;28;20027;-60
2023/09/03 10:50:44;;;;;;;6.10;5.03;;;;;;;24.19;61.75;102683.22;5071102;28;20067;-61
2023/09/03 10:53:37;;;;;;;7.10;6.03;;;;;;;24.18;59.13;102683.41;5071384;28;20054;-62
2023/09/03 10:56:13;;;;;;;9.05;5.63;;;;;;;24.17;57.28;102679.78;5071327;28;20437;-61
2023/09/03 10:58:52;;;;;;;6.15;5.55;;;;;;;24.32;59.21;102688.38;5053584;28;20028;-61
2023/09/03 11:01:26;;;;;;;8.98;5.90;;;;;;;24.25;61.45;102688.09;5049943;28;20495;-62
2023/09/03 11:03:53;;;;;;;7.75;6.95;;;;;;;24.37;58.87;102682.53;5070972;28;20063;-62
2023/09/03 11:06:26;;;;;;;7.60;6.25;;;;;;;24.55;57.70;102680.84;5070811;28;20028;-61